Accueil
METAR-TAF:

METAR-TAF

Aéroports :

Aéroport international de Cambridge

Cambridge, Angleterre

latitude: 52-12N, longitude: 000-11E, altitude: 15 m

Observation

Le bulletin a été fait il y a 25 heures et 11 minutes, à 15:50 UTC
Vent 16 kt de ouest/sud-ouest
Température 17°C
Humidité 48%
Pression 1012 hPa
Visibilité 10 km ou plus
Nuages épars à une hauteur de 4300 ft

METAR: EGSC 271550Z 24016KT 9999 SCT043 17/06 Q1012

Heure: 18:01 (17:01 UTC)

Prévision

Le bulletin a été fait il y a 27 heures et 0 minutes, à 14:01 UTC
Prévision valable du 27 à 15 UTC au 27 à 19 UTC
Vent 14 kt de ouest/sud-ouest
Visibilité 10 km ou plus
Nuages épars à une hauteur de 3500 ft

TAF: EGSC 271401Z 2715/2719 24014KT 9999 SCT035

Observations et prévisions météorologiques de plus de 4000 aéroports (messages METAR et TAF).

Les stations disponibles sont représentées par des disques jaunes et rouges sur la carte.

Passer la souris dessus pour voir le nom de la station.

Cliquer dessus pour voir les observations et prévisions météorologiques.

Pour changer de carte: cliquez sur les boutons verts avec une croix noire pour zoomer, sur le bouton vert avec un tiret pour effectuer un zoom arrière, ou sur les flèches vertes pour les cartes adjacentes.


METAR-TAF: